Main page
METAR-TAF:

METAR-TAF

Airports :

St. Gallen–Altenrhein Airport

St. Gallen, Switzerland

latitude: 47-29-06N, longitude: 009-33-43E, elevation: 398 m

Current weather observation

The report was made 10 minutes ago, at 23:50 UTC
Wind 3 kt from variable directions
Temperature 3°C
Humidity 81%
Pressure 1005 hPa
Visibility 10 km or more

METAR: LSZR 172350Z AUTO VRB03KT 9999 NCD 03/00 Q1005

Time: 01:00 (00:00 UTC)

Forecast

The report was made 9 hours and 35 minutes ago, at 14:25 UTC
Forecast valid from 17 at 15 UTC to 17 at 24 UTC
Wind 4 kt from the West
Visibility 10 km or more
Broken clouds at a height of 2000 ft
Probability 40% :
Temporary
from 17 at 15 UTC to 17 at 17 UTC
Visibility: 4500 m
Broken clouds at a height of 1200 ft
rain

TAF: LSZR 171425Z 1715/1724 27004KT 9999 BKN020 PROB40 TEMPO 1715/1717 4500 RA BKN012

Weather observations and forecasts of more than 4000 airports (METAR and TAF reports).

The available stations are represented by yellow and red dots on the map.

Hover mouse over dot to see the name of the station.

Then click to see weather observations and forecasts.

To change the map : click on the green buttons with a black cross to zoom in, on the green button with a dash to zoom out, or on the green arrows for adjacent maps.


METAR-TAF: